Terminal Aerodrome Forecast
Issued by NWS Rapid City, SD

Home | Current Version | Previous Version | Text Only | Print | Product List | Glossary Off
Versions: 1 2 3 4 5 6 7 8 9 10 11 12 13 14 15 16 17 18

000
FTUS43 KUNR 251800 AAA
TAFRAP
TAF AMD
KRAP 251823Z 2518/2618 36020G30KT 1SM -SN BR SCT006 OVC012
      TEMPO 2518/2522 1/2SM -SN FZFG BKN006
     FM260300 34014KT P6SM BKN020=

USA.gov is the U.S. government's official web portal to all federal, state and local government web resources and services.